sensor_id;sensor_type;location;lat;lon;timestamp;P1;durP1;ratioP1;P2;durP2;ratioP2
19907;SDS011;10116;53.112;7.356;2024-02-23T00:02:15;0.50;;;0.50;;
19907;SDS011;10116;53.112;7.356;2024-02-23T00:04:40;0.50;;;0.40;;
19907;SDS011;10116;53.112;7.356;2024-02-23T00:07:06;0.60;;;0.50;;
19907;SDS011;10116;53.112;7.356;2024-02-23T00:09:33;0.90;;;0.57;;
19907;SDS011;10116;53.112;7.356;2024-02-23T00:11:59;0.50;;;0.43;;
19907;SDS011;10116;53.112;7.356;2024-02-23T00:14:24;0.57;;;0.57;;
19907;SDS011;10116;53.112;7.356;2024-02-23T00:16:50;0.60;;;0.50;;
19907;SDS011;10116;53.112;7.356;2024-02-23T00:19:16;0.60;;;0.60;;
19907;SDS011;10116;53.112;7.356;2024-02-23T00:21:44;0.50;;;0.40;;
19907;SDS011;10116;53.112;7.356;2024-02-23T00:24:14;1.17;;;0.80;;
19907;SDS011;10116;53.112;7.356;2024-02-23T00:26:41;2.67;;;0.60;;
19907;SDS011;10116;53.112;7.356;2024-02-23T00:29:07;0.50;;;0.40;;
19907;SDS011;10116;53.112;7.356;2024-02-23T00:31:33;0.57;;;0.57;;
19907;SDS011;10116;53.112;7.356;2024-02-23T00:33:59;0.40;;;0.40;;
19907;SDS011;10116;53.112;7.356;2024-02-23T00:36:24;0.50;;;0.43;;
19907;SDS011;10116;53.112;7.356;2024-02-23T00:38:50;1.53;;;0.60;;
19907;SDS011;10116;53.112;7.356;2024-02-23T00:41:15;0.60;;;0.60;;
19907;SDS011;10116;53.112;7.356;2024-02-23T00:43:41;0.50;;;0.50;;
19907;SDS011;10116;53.112;7.356;2024-02-23T00:46:07;0.50;;;0.40;;
19907;SDS011;10116;53.112;7.356;2024-02-23T00:48:33;0.60;;;0.47;;
19907;SDS011;10116;53.112;7.356;2024-02-23T00:51:00;0.53;;;0.50;;
19907;SDS011;10116;53.112;7.356;2024-02-23T00:53:30;0.40;;;0.40;;
19907;SDS011;10116;53.112;7.356;2024-02-23T00:55:56;0.93;;;0.60;;
19907;SDS011;10116;53.112;7.356;2024-02-23T00:58:22;0.40;;;0.30;;
19907;SDS011;10116;53.112;7.356;2024-02-23T01:00:48;0.60;;;0.47;;
19907;SDS011;10116;53.112;7.356;2024-02-23T01:03:13;1.00;;;0.67;;
19907;SDS011;10116;53.112;7.356;2024-02-23T01:05:39;0.50;;;0.40;;
19907;SDS011;10116;53.112;7.356;2024-02-23T01:08:07;0.93;;;0.40;;
19907;SDS011;10116;53.112;7.356;2024-02-23T01:10:33;0.50;;;0.40;;
19907;SDS011;10116;53.112;7.356;2024-02-23T01:12:58;0.50;;;0.40;;
19907;SDS011;10116;53.112;7.356;2024-02-23T01:15:24;0.60;;;0.60;;
19907;SDS011;10116;53.112;7.356;2024-02-23T01:17:50;0.63;;;0.63;;
19907;SDS011;10116;53.112;7.356;2024-02-23T01:20:15;0.73;;;0.50;;
19907;SDS011;10116;53.112;7.356;2024-02-23T01:22:42;0.40;;;0.40;;
19907;SDS011;10116;53.112;7.356;2024-02-23T01:25:08;0.70;;;0.50;;
19907;SDS011;10116;53.112;7.356;2024-02-23T01:27:33;0.60;;;0.60;;
19907;SDS011;10116;53.112;7.356;2024-02-23T01:29:59;0.50;;;0.40;;
19907;SDS011;10116;53.112;7.356;2024-02-23T01:32:25;1.00;;;0.40;;
19907;SDS011;10116;53.112;7.356;2024-02-23T01:34:50;0.50;;;0.50;;
19907;SDS011;10116;53.112;7.356;2024-02-23T01:37:16;0.40;;;0.30;;
19907;SDS011;10116;53.112;7.356;2024-02-23T01:39:42;0.60;;;0.50;;
19907;SDS011;10116;53.112;7.356;2024-02-23T01:42:08;0.40;;;0.40;;
19907;SDS011;10116;53.112;7.356;2024-02-23T01:44:34;0.70;;;0.40;;
19907;SDS011;10116;53.112;7.356;2024-02-23T01:46:59;0.50;;;0.40;;
19907;SDS011;10116;53.112;7.356;2024-02-23T01:49:25;0.50;;;0.40;;
19907;SDS011;10116;53.112;7.356;2024-02-23T01:51:55;0.57;;;0.50;;
19907;SDS011;10116;53.112;7.356;2024-02-23T01:54:22;0.50;;;0.50;;
19907;SDS011;10116;53.112;7.356;2024-02-23T01:56:52;1.27;;;0.60;;
19907;SDS011;10116;53.112;7.356;2024-02-23T01:59:18;0.50;;;0.50;;
19907;SDS011;10116;53.112;7.356;2024-02-23T02:01:44;0.60;;;0.47;;
19907;SDS011;10116;53.112;7.356;2024-02-23T02:04:10;0.50;;;0.40;;
19907;SDS011;10116;53.112;7.356;2024-02-23T02:06:36;0.50;;;0.40;;
19907;SDS011;10116;53.112;7.356;2024-02-23T02:09:01;0.50;;;0.40;;
19907;SDS011;10116;53.112;7.356;2024-02-23T02:11:27;1.90;;;0.40;;
19907;SDS011;10116;53.112;7.356;2024-02-23T02:13:53;0.40;;;0.40;;
19907;SDS011;10116;53.112;7.356;2024-02-23T02:16:18;0.50;;;0.40;;
19907;SDS011;10116;53.112;7.356;2024-02-23T02:18:44;0.50;;;0.40;;
19907;SDS011;10116;53.112;7.356;2024-02-23T02:21:11;0.50;;;0.40;;
19907;SDS011;10116;53.112;7.356;2024-02-23T02:23:36;0.57;;;0.40;;
19907;SDS011;10116;53.112;7.356;2024-02-23T02:26:02;0.50;;;0.40;;
19907;SDS011;10116;53.112;7.356;2024-02-23T02:28:28;0.70;;;0.47;;
19907;SDS011;10116;53.112;7.356;2024-02-23T02:30:54;0.63;;;0.50;;
19907;SDS011;10116;53.112;7.356;2024-02-23T02:33:21;1.43;;;0.40;;
19907;SDS011;10116;53.112;7.356;2024-02-23T02:35:47;0.40;;;0.40;;
19907;SDS011;10116;53.112;7.356;2024-02-23T02:38:14;0.83;;;0.40;;
19907;SDS011;10116;53.112;7.356;2024-02-23T02:40:40;0.83;;;0.43;;
19907;SDS011;10116;53.112;7.356;2024-02-23T02:43:06;0.70;;;0.63;;
19907;SDS011;10116;53.112;7.356;2024-02-23T02:45:32;0.50;;;0.50;;
19907;SDS011;10116;53.112;7.356;2024-02-23T02:47:59;1.13;;;0.60;;
19907;SDS011;10116;53.112;7.356;2024-02-23T02:50:25;1.47;;;0.57;;
19907;SDS011;10116;53.112;7.356;2024-02-23T02:52:51;0.57;;;0.57;;
19907;SDS011;10116;53.112;7.356;2024-02-23T02:55:16;0.50;;;0.43;;
19907;SDS011;10116;53.112;7.356;2024-02-23T02:57:43;0.50;;;0.40;;
19907;SDS011;10116;53.112;7.356;2024-02-23T03:00:10;0.50;;;0.40;;
19907;SDS011;10116;53.112;7.356;2024-02-23T03:02:36;1.03;;;0.60;;
19907;SDS011;10116;53.112;7.356;2024-02-23T03:05:02;1.63;;;0.50;;
19907;SDS011;10116;53.112;7.356;2024-02-23T03:07:28;0.40;;;0.40;;
19907;SDS011;10116;53.112;7.356;2024-02-23T03:09:53;1.30;;;0.40;;
19907;SDS011;10116;53.112;7.356;2024-02-23T03:12:19;0.80;;;0.50;;
19907;SDS011;10116;53.112;7.356;2024-02-23T03:14:45;0.70;;;0.50;;
19907;SDS011;10116;53.112;7.356;2024-02-23T03:17:11;0.60;;;0.60;;
19907;SDS011;10116;53.112;7.356;2024-02-23T03:19:37;1.70;;;0.80;;
19907;SDS011;10116;53.112;7.356;2024-02-23T03:22:03;0.80;;;0.60;;
19907;SDS011;10116;53.112;7.356;2024-02-23T03:24:29;0.43;;;0.43;;
19907;SDS011;10116;53.112;7.356;2024-02-23T03:26:55;1.57;;;0.60;;
19907;SDS011;10116;53.112;7.356;2024-02-23T03:29:21;0.70;;;0.60;;
19907;SDS011;10116;53.112;7.356;2024-02-23T03:31:54;0.80;;;0.50;;
19907;SDS011;10116;53.112;7.356;2024-02-23T03:34:20;0.70;;;0.70;;
19907;SDS011;10116;53.112;7.356;2024-02-23T03:36:45;0.60;;;0.50;;
19907;SDS011;10116;53.112;7.356;2024-02-23T03:39:11;1.03;;;0.50;;
19907;SDS011;10116;53.112;7.356;2024-02-23T03:41:37;0.83;;;0.60;;
19907;SDS011;10116;53.112;7.356;2024-02-23T03:44:02;1.03;;;0.60;;
19907;SDS011;10116;53.112;7.356;2024-02-23T03:46:28;1.33;;;0.70;;
19907;SDS011;10116;53.112;7.356;2024-02-23T03:48:54;0.60;;;0.60;;
19907;SDS011;10116;53.112;7.356;2024-02-23T03:51:19;0.60;;;0.60;;
19907;SDS011;10116;53.112;7.356;2024-02-23T03:53:45;0.80;;;0.50;;
19907;SDS011;10116;53.112;7.356;2024-02-23T03:56:10;0.93;;;0.60;;
19907;SDS011;10116;53.112;7.356;2024-02-23T03:58:36;1.30;;;0.57;;
19907;SDS011;10116;53.112;7.356;2024-02-23T04:01:02;0.70;;;0.60;;
19907;SDS011;10116;53.112;7.356;2024-02-23T04:03:27;0.73;;;0.73;;
19907;SDS011;10116;53.112;7.356;2024-02-23T04:05:53;1.23;;;0.70;;
19907;SDS011;10116;53.112;7.356;2024-02-23T04:08:18;1.83;;;0.73;;
19907;SDS011;10116;53.112;7.356;2024-02-23T04:10:44;1.33;;;0.83;;
19907;SDS011;10116;53.112;7.356;2024-02-23T04:13:10;1.27;;;0.70;;
19907;SDS011;10116;53.112;7.356;2024-02-23T04:15:38;1.23;;;0.63;;
19907;SDS011;10116;53.112;7.356;2024-02-23T04:18:04;0.87;;;0.63;;
19907;SDS011;10116;53.112;7.356;2024-02-23T04:20:30;0.70;;;0.70;;
19907;SDS011;10116;53.112;7.356;2024-02-23T04:22:57;1.03;;;0.90;;
19907;SDS011;10116;53.112;7.356;2024-02-23T04:25:22;1.20;;;0.97;;
19907;SDS011;10116;53.112;7.356;2024-02-23T04:27:48;1.37;;;0.70;;
19907;SDS011;10116;53.112;7.356;2024-02-23T04:30:14;1.23;;;0.80;;
19907;SDS011;10116;53.112;7.356;2024-02-23T04:32:39;0.67;;;0.60;;
19907;SDS011;10116;53.112;7.356;2024-02-23T04:35:05;0.70;;;0.70;;
19907;SDS011;10116;53.112;7.356;2024-02-23T04:37:31;0.67;;;0.67;;
19907;SDS011;10116;53.112;7.356;2024-02-23T04:39:57;0.80;;;0.60;;
19907;SDS011;10116;53.112;7.356;2024-02-23T04:42:22;0.60;;;0.60;;
19907;SDS011;10116;53.112;7.356;2024-02-23T04:44:48;0.97;;;0.80;;
19907;SDS011;10116;53.112;7.356;2024-02-23T04:47:14;0.60;;;0.60;;
19907;SDS011;10116;53.112;7.356;2024-02-23T04:49:40;0.70;;;0.70;;
19907;SDS011;10116;53.112;7.356;2024-02-23T04:52:06;0.93;;;0.73;;
19907;SDS011;10116;53.112;7.356;2024-02-23T04:54:33;1.53;;;0.93;;
19907;SDS011;10116;53.112;7.356;2024-02-23T04:57:00;0.70;;;0.60;;
19907;SDS011;10116;53.112;7.356;2024-02-23T04:59:25;0.73;;;0.73;;
19907;SDS011;10116;53.112;7.356;2024-02-23T05:01:51;1.03;;;0.80;;
19907;SDS011;10116;53.112;7.356;2024-02-23T05:04:17;0.53;;;0.53;;
19907;SDS011;10116;53.112;7.356;2024-02-23T05:06:42;1.10;;;0.60;;
19907;SDS011;10116;53.112;7.356;2024-02-23T05:09:08;0.70;;;0.70;;
19907;SDS011;10116;53.112;7.356;2024-02-23T05:11:34;2.43;;;0.80;;
19907;SDS011;10116;53.112;7.356;2024-02-23T05:14:00;3.47;;;0.90;;
19907;SDS011;10116;53.112;7.356;2024-02-23T05:16:26;0.80;;;0.80;;
19907;SDS011;10116;53.112;7.356;2024-02-23T05:18:51;1.33;;;0.87;;
19907;SDS011;10116;53.112;7.356;2024-02-23T05:21:17;2.20;;;0.87;;
19907;SDS011;10116;53.112;7.356;2024-02-23T05:23:43;0.90;;;0.67;;
19907;SDS011;10116;53.112;7.356;2024-02-23T05:26:08;0.50;;;0.50;;
19907;SDS011;10116;53.112;7.356;2024-02-23T05:28:35;1.00;;;0.90;;
19907;SDS011;10116;53.112;7.356;2024-02-23T05:31:02;0.73;;;0.60;;
19907;SDS011;10116;53.112;7.356;2024-02-23T05:33:28;1.67;;;0.90;;
19907;SDS011;10116;53.112;7.356;2024-02-23T05:35:54;1.10;;;0.60;;
19907;SDS011;10116;53.112;7.356;2024-02-23T05:38:20;1.37;;;0.60;;
19907;SDS011;10116;53.112;7.356;2024-02-23T05:40:45;1.07;;;0.67;;
19907;SDS011;10116;53.112;7.356;2024-02-23T05:43:13;1.63;;;0.67;;
19907;SDS011;10116;53.112;7.356;2024-02-23T05:45:39;2.83;;;0.70;;
19907;SDS011;10116;53.112;7.356;2024-02-23T05:48:05;0.90;;;0.80;;
19907;SDS011;10116;53.112;7.356;2024-02-23T05:50:31;4.17;;;1.23;;
19907;SDS011;10116;53.112;7.356;2024-02-23T05:52:57;1.60;;;1.03;;
19907;SDS011;10116;53.112;7.356;2024-02-23T05:55:23;2.90;;;1.23;;
19907;SDS011;10116;53.112;7.356;2024-02-23T05:57:49;1.80;;;1.00;;
19907;SDS011;10116;53.112;7.356;2024-02-23T06:00:16;1.90;;;0.90;;
19907;SDS011;10116;53.112;7.356;2024-02-23T06:02:44;5.07;;;1.10;;
19907;SDS011;10116;53.112;7.356;2024-02-23T06:05:11;2.10;;;1.03;;
19907;SDS011;10116;53.112;7.356;2024-02-23T06:07:37;2.40;;;1.37;;
19907;SDS011;10116;53.112;7.356;2024-02-23T06:10:03;2.20;;;0.80;;
19907;SDS011;10116;53.112;7.356;2024-02-23T06:12:30;2.03;;;1.13;;
19907;SDS011;10116;53.112;7.356;2024-02-23T06:14:55;4.70;;;1.47;;
19907;SDS011;10116;53.112;7.356;2024-02-23T06:17:22;6.23;;;1.63;;
19907;SDS011;10116;53.112;7.356;2024-02-23T06:19:48;1.80;;;1.27;;
19907;SDS011;10116;53.112;7.356;2024-02-23T06:22:13;4.23;;;1.17;;
19907;SDS011;10116;53.112;7.356;2024-02-23T06:24:42;5.20;;;1.63;;
19907;SDS011;10116;53.112;7.356;2024-02-23T06:27:07;2.90;;;1.43;;
19907;SDS011;10116;53.112;7.356;2024-02-23T06:29:33;6.27;;;1.60;;
19907;SDS011;10116;53.112;7.356;2024-02-23T06:31:59;3.97;;;1.77;;
19907;SDS011;10116;53.112;7.356;2024-02-23T06:34:26;1.60;;;1.50;;
19907;SDS011;10116;53.112;7.356;2024-02-23T06:36:53;3.03;;;1.43;;
19907;SDS011;10116;53.112;7.356;2024-02-23T06:39:18;5.10;;;1.80;;
19907;SDS011;10116;53.112;7.356;2024-02-23T06:41:45;3.53;;;1.67;;
19907;SDS011;10116;53.112;7.356;2024-02-23T06:44:10;3.60;;;1.33;;
19907;SDS011;10116;53.112;7.356;2024-02-23T06:46:36;1.30;;;1.20;;
19907;SDS011;10116;53.112;7.356;2024-02-23T06:49:02;3.57;;;1.90;;
19907;SDS011;10116;53.112;7.356;2024-02-23T06:51:29;3.37;;;1.63;;
19907;SDS011;10116;53.112;7.356;2024-02-23T06:53:56;4.73;;;2.00;;
19907;SDS011;10116;53.112;7.356;2024-02-23T06:56:22;2.20;;;1.37;;
19907;SDS011;10116;53.112;7.356;2024-02-23T06:58:47;1.30;;;1.20;;
19907;SDS011;10116;53.112;7.356;2024-02-23T07:01:13;3.63;;;1.70;;
19907;SDS011;10116;53.112;7.356;2024-02-23T07:03:39;2.90;;;1.63;;
19907;SDS011;10116;53.112;7.356;2024-02-23T07:06:06;4.10;;;1.60;;
19907;SDS011;10116;53.112;7.356;2024-02-23T07:08:32;1.13;;;1.10;;
19907;SDS011;10116;53.112;7.356;2024-02-23T07:10:57;2.23;;;1.07;;
19907;SDS011;10116;53.112;7.356;2024-02-23T07:13:23;2.47;;;1.43;;
19907;SDS011;10116;53.112;7.356;2024-02-23T07:15:49;2.40;;;1.10;;
19907;SDS011;10116;53.112;7.356;2024-02-23T07:18:14;1.90;;;1.30;;
19907;SDS011;10116;53.112;7.356;2024-02-23T07:20:41;2.13;;;1.37;;
19907;SDS011;10116;53.112;7.356;2024-02-23T07:23:06;1.70;;;1.27;;
19907;SDS011;10116;53.112;7.356;2024-02-23T07:25:32;1.47;;;1.20;;
19907;SDS011;10116;53.112;7.356;2024-02-23T07:27:58;1.63;;;1.43;;
19907;SDS011;10116;53.112;7.356;2024-02-23T07:30:24;1.20;;;1.00;;
19907;SDS011;10116;53.112;7.356;2024-02-23T07:32:49;1.50;;;1.17;;
19907;SDS011;10116;53.112;7.356;2024-02-23T07:35:15;3.10;;;1.23;;
19907;SDS011;10116;53.112;7.356;2024-02-23T07:37:41;3.93;;;1.77;;
19907;SDS011;10116;53.112;7.356;2024-02-23T07:40:07;2.00;;;1.20;;
19907;SDS011;10116;53.112;7.356;2024-02-23T07:42:33;1.73;;;1.23;;
19907;SDS011;10116;53.112;7.356;2024-02-23T07:45:01;1.53;;;1.20;;
19907;SDS011;10116;53.112;7.356;2024-02-23T07:47:33;1.43;;;1.33;;
19907;SDS011;10116;53.112;7.356;2024-02-23T07:49:59;1.50;;;1.20;;
19907;SDS011;10116;53.112;7.356;2024-02-23T07:52:24;1.10;;;0.90;;
19907;SDS011;10116;53.112;7.356;2024-02-23T07:54:53;2.07;;;1.30;;
19907;SDS011;10116;53.112;7.356;2024-02-23T07:57:19;1.67;;;1.50;;
19907;SDS011;10116;53.112;7.356;2024-02-23T07:59:45;1.67;;;1.30;;
19907;SDS011;10116;53.112;7.356;2024-02-23T08:02:11;2.40;;;1.37;;
19907;SDS011;10116;53.112;7.356;2024-02-23T08:04:37;1.83;;;1.40;;
19907;SDS011;10116;53.112;7.356;2024-02-23T08:07:03;2.20;;;1.20;;
19907;SDS011;10116;53.112;7.356;2024-02-23T08:09:29;5.20;;;1.47;;
19907;SDS011;10116;53.112;7.356;2024-02-23T08:11:55;2.83;;;1.40;;
19907;SDS011;10116;53.112;7.356;2024-02-23T08:14:21;4.53;;;1.97;;
19907;SDS011;10116;53.112;7.356;2024-02-23T08:16:46;2.30;;;1.60;;
19907;SDS011;10116;53.112;7.356;2024-02-23T08:19:12;1.50;;;1.30;;
19907;SDS011;10116;53.112;7.356;2024-02-23T08:21:38;2.03;;;1.40;;
19907;SDS011;10116;53.112;7.356;2024-02-23T08:24:04;1.40;;;1.30;;
19907;SDS011;10116;53.112;7.356;2024-02-23T08:26:30;1.83;;;1.13;;
19907;SDS011;10116;53.112;7.356;2024-02-23T08:28:55;1.83;;;1.20;;
19907;SDS011;10116;53.112;7.356;2024-02-23T08:31:21;1.87;;;1.20;;
19907;SDS011;10116;53.112;7.356;2024-02-23T08:33:47;2.70;;;1.50;;
19907;SDS011;10116;53.112;7.356;2024-02-23T08:36:12;1.23;;;1.13;;
19907;SDS011;10116;53.112;7.356;2024-02-23T08:38:38;3.20;;;1.33;;
19907;SDS011;10116;53.112;7.356;2024-02-23T08:41:04;2.40;;;1.23;;
19907;SDS011;10116;53.112;7.356;2024-02-23T08:43:29;2.03;;;1.37;;
19907;SDS011;10116;53.112;7.356;2024-02-23T08:45:55;2.83;;;1.40;;
19907;SDS011;10116;53.112;7.356;2024-02-23T08:48:21;1.63;;;1.10;;
19907;SDS011;10116;53.112;7.356;2024-02-23T08:50:46;3.13;;;1.17;;
19907;SDS011;10116;53.112;7.356;2024-02-23T08:53:12;2.73;;;1.47;;
19907;SDS011;10116;53.112;7.356;2024-02-23T08:55:37;1.40;;;1.30;;
19907;SDS011;10116;53.112;7.356;2024-02-23T08:58:03;3.17;;;1.33;;
19907;SDS011;10116;53.112;7.356;2024-02-23T09:00:30;1.90;;;1.00;;
19907;SDS011;10116;53.112;7.356;2024-02-23T09:02:56;2.40;;;1.40;;
19907;SDS011;10116;53.112;7.356;2024-02-23T09:05:22;2.60;;;0.90;;
19907;SDS011;10116;53.112;7.356;2024-02-23T09:07:48;1.53;;;1.10;;
19907;SDS011;10116;53.112;7.356;2024-02-23T09:10:13;2.10;;;1.40;;
19907;SDS011;10116;53.112;7.356;2024-02-23T09:12:39;1.00;;;0.90;;
19907;SDS011;10116;53.112;7.356;2024-02-23T09:15:05;2.30;;;1.20;;
19907;SDS011;10116;53.112;7.356;2024-02-23T09:17:31;2.70;;;1.30;;
19907;SDS011;10116;53.112;7.356;2024-02-23T09:19:57;1.43;;;1.07;;
19907;SDS011;10116;53.112;7.356;2024-02-23T09:22:22;1.70;;;1.10;;
19907;SDS011;10116;53.112;7.356;2024-02-23T09:24:48;2.73;;;1.20;;
19907;SDS011;10116;53.112;7.356;2024-02-23T09:27:14;1.47;;;1.33;;
19907;SDS011;10116;53.112;7.356;2024-02-23T09:29:40;1.53;;;1.30;;
19907;SDS011;10116;53.112;7.356;2024-02-23T09:32:07;1.63;;;0.83;;
19907;SDS011;10116;53.112;7.356;2024-02-23T09:34:32;0.90;;;0.90;;
19907;SDS011;10116;53.112;7.356;2024-02-23T09:36:58;1.40;;;0.97;;
19907;SDS011;10116;53.112;7.356;2024-02-23T09:39:24;1.90;;;1.10;;
19907;SDS011;10116;53.112;7.356;2024-02-23T09:41:51;1.03;;;0.93;;
19907;SDS011;10116;53.112;7.356;2024-02-23T09:44:18;1.10;;;1.10;;
19907;SDS011;10116;53.112;7.356;2024-02-23T09:46:46;0.90;;;0.90;;
19907;SDS011;10116;53.112;7.356;2024-02-23T09:49:11;1.37;;;0.90;;
19907;SDS011;10116;53.112;7.356;2024-02-23T09:51:39;2.00;;;1.10;;
19907;SDS011;10116;53.112;7.356;2024-02-23T09:54:05;1.60;;;1.10;;
19907;SDS011;10116;53.112;7.356;2024-02-23T09:56:32;1.30;;;1.20;;
19907;SDS011;10116;53.112;7.356;2024-02-23T09:59:02;1.17;;;1.00;;
19907;SDS011;10116;53.112;7.356;2024-02-23T10:01:29;0.90;;;0.80;;
19907;SDS011;10116;53.112;7.356;2024-02-23T10:03:58;0.90;;;0.90;;
19907;SDS011;10116;53.112;7.356;2024-02-23T10:06:25;1.83;;;1.10;;
19907;SDS011;10116;53.112;7.356;2024-02-23T10:08:50;3.13;;;1.17;;
19907;SDS011;10116;53.112;7.356;2024-02-23T10:11:23;1.70;;;1.07;;
19907;SDS011;10116;53.112;7.356;2024-02-23T10:13:50;1.07;;;1.03;;
19907;SDS011;10116;53.112;7.356;2024-02-23T10:16:17;1.23;;;1.07;;
19907;SDS011;10116;53.112;7.356;2024-02-23T10:18:48;2.07;;;1.33;;
19907;SDS011;10116;53.112;7.356;2024-02-23T10:21:15;1.40;;;1.30;;
19907;SDS011;10116;53.112;7.356;2024-02-23T10:23:41;2.10;;;1.00;;
19907;SDS011;10116;53.112;7.356;2024-02-23T10:26:07;1.67;;;1.40;;
19907;SDS011;10116;53.112;7.356;2024-02-23T10:28:34;1.90;;;1.27;;
19907;SDS011;10116;53.112;7.356;2024-02-23T10:31:02;1.13;;;1.07;;
19907;SDS011;10116;53.112;7.356;2024-02-23T10:33:28;2.40;;;1.27;;
19907;SDS011;10116;53.112;7.356;2024-02-23T10:35:56;3.90;;;1.30;;
19907;SDS011;10116;53.112;7.356;2024-02-23T10:38:23;1.27;;;1.17;;
19907;SDS011;10116;53.112;7.356;2024-02-23T10:40:51;1.57;;;1.10;;
19907;SDS011;10116;53.112;7.356;2024-02-23T10:43:25;1.87;;;1.10;;
19907;SDS011;10116;53.112;7.356;2024-02-23T10:46:03;2.93;;;1.10;;
19907;SDS011;10116;53.112;7.356;2024-02-23T10:48:33;2.10;;;0.93;;
19907;SDS011;10116;53.112;7.356;2024-02-23T10:50:59;1.90;;;1.40;;
19907;SDS011;10116;53.112;7.356;2024-02-23T10:53:25;2.30;;;1.37;;
19907;SDS011;10116;53.112;7.356;2024-02-23T10:55:54;4.10;;;1.30;;
19907;SDS011;10116;53.112;7.356;2024-02-23T10:58:24;3.33;;;1.40;;
19907;SDS011;10116;53.112;7.356;2024-02-23T11:00:50;1.97;;;0.80;;
19907;SDS011;10116;53.112;7.356;2024-02-23T11:03:16;1.50;;;1.20;;
19907;SDS011;10116;53.112;7.356;2024-02-23T11:05:43;2.13;;;1.10;;
19907;SDS011;10116;53.112;7.356;2024-02-23T11:08:14;1.77;;;1.30;;
19907;SDS011;10116;53.112;7.356;2024-02-23T11:10:50;1.10;;;0.97;;
19907;SDS011;10116;53.112;7.356;2024-02-23T11:13:29;1.40;;;1.17;;
19907;SDS011;10116;53.112;7.356;2024-02-23T11:16:06;1.60;;;1.00;;
19907;SDS011;10116;53.112;7.356;2024-02-23T11:18:34;1.20;;;0.80;;
19907;SDS011;10116;53.112;7.356;2024-02-23T11:21:04;2.40;;;1.40;;
19907;SDS011;10116;53.112;7.356;2024-02-23T11:23:43;1.50;;;1.20;;
19907;SDS011;10116;53.112;7.356;2024-02-23T11:26:10;2.17;;;1.27;;
19907;SDS011;10116;53.112;7.356;2024-02-23T11:31:12;1.87;;;1.17;;
19907;SDS011;10116;53.112;7.356;2024-02-23T11:33:39;1.50;;;0.77;;
19907;SDS011;10116;53.112;7.356;2024-02-23T11:36:08;1.60;;;1.13;;
19907;SDS011;10116;53.112;7.356;2024-02-23T11:38:34;1.23;;;1.13;;
19907;SDS011;10116;53.112;7.356;2024-02-23T11:41:00;2.50;;;1.20;;
19907;SDS011;10116;53.112;7.356;2024-02-23T11:43:27;1.90;;;0.83;;
19907;SDS011;10116;53.112;7.356;2024-02-23T11:45:53;1.40;;;1.27;;
19907;SDS011;10116;53.112;7.356;2024-02-23T11:48:18;0.80;;;0.80;;
19907;SDS011;10116;53.112;7.356;2024-02-23T11:50:44;1.60;;;1.00;;
19907;SDS011;10116;53.112;7.356;2024-02-23T11:53:10;1.27;;;0.93;;
19907;SDS011;10116;53.112;7.356;2024-02-23T11:55:36;1.20;;;0.97;;
19907;SDS011;10116;53.112;7.356;2024-02-23T11:58:02;2.43;;;1.17;;
19907;SDS011;10116;53.112;7.356;2024-02-23T12:00:27;2.83;;;1.00;;
19907;SDS011;10116;53.112;7.356;2024-02-23T12:02:55;2.07;;;1.10;;
19907;SDS011;10116;53.112;7.356;2024-02-23T12:05:21;1.80;;;1.03;;
19907;SDS011;10116;53.112;7.356;2024-02-23T12:07:47;3.27;;;1.17;;
19907;SDS011;10116;53.112;7.356;2024-02-23T12:10:13;1.77;;;1.00;;
19907;SDS011;10116;53.112;7.356;2024-02-23T12:12:38;1.00;;;0.83;;
19907;SDS011;10116;53.112;7.356;2024-02-23T12:15:05;2.43;;;1.10;;
19907;SDS011;10116;53.112;7.356;2024-02-23T12:17:31;2.20;;;0.90;;
19907;SDS011;10116;53.112;7.356;2024-02-23T12:20:01;1.07;;;0.90;;
19907;SDS011;10116;53.112;7.356;2024-02-23T12:22:27;1.60;;;1.00;;
19907;SDS011;10116;53.112;7.356;2024-02-23T12:24:53;1.63;;;1.10;;
19907;SDS011;10116;53.112;7.356;2024-02-23T12:27:22;5.27;;;1.03;;
19907;SDS011;10116;53.112;7.356;2024-02-23T12:29:53;4.40;;;1.40;;
19907;SDS011;10116;53.112;7.356;2024-02-23T12:32:22;2.47;;;1.10;;
19907;SDS011;10116;53.112;7.356;2024-02-23T12:34:48;1.00;;;0.90;;
19907;SDS011;10116;53.112;7.356;2024-02-23T12:37:14;1.40;;;0.90;;
19907;SDS011;10116;53.112;7.356;2024-02-23T12:39:41;0.93;;;0.80;;
19907;SDS011;10116;53.112;7.356;2024-02-23T12:42:07;1.30;;;1.13;;
19907;SDS011;10116;53.112;7.356;2024-02-23T12:44:33;3.17;;;1.10;;
19907;SDS011;10116;53.112;7.356;2024-02-23T12:46:58;2.33;;;0.93;;
19907;SDS011;10116;53.112;7.356;2024-02-23T12:49:24;1.03;;;0.90;;
19907;SDS011;10116;53.112;7.356;2024-02-23T12:51:50;1.63;;;1.00;;
19907;SDS011;10116;53.112;7.356;2024-02-23T12:54:15;1.10;;;0.83;;
19907;SDS011;10116;53.112;7.356;2024-02-23T12:56:41;3.77;;;1.10;;
19907;SDS011;10116;53.112;7.356;2024-02-23T12:59:07;2.10;;;0.83;;
19907;SDS011;10116;53.112;7.356;2024-02-23T13:01:34;0.93;;;0.93;;
19907;SDS011;10116;53.112;7.356;2024-02-23T13:04:02;1.73;;;0.90;;
19907;SDS011;10116;53.112;7.356;2024-02-23T13:06:28;0.90;;;0.73;;
19907;SDS011;10116;53.112;7.356;2024-02-23T13:08:54;2.83;;;0.77;;
19907;SDS011;10116;53.112;7.356;2024-02-23T13:11:20;1.07;;;0.90;;
19907;SDS011;10116;53.112;7.356;2024-02-23T13:13:45;1.13;;;0.87;;
19907;SDS011;10116;53.112;7.356;2024-02-23T13:16:12;1.00;;;0.90;;
19907;SDS011;10116;53.112;7.356;2024-02-23T13:18:39;0.97;;;0.80;;
19907;SDS011;10116;53.112;7.356;2024-02-23T13:21:05;0.97;;;0.70;;
19907;SDS011;10116;53.112;7.356;2024-02-23T13:23:31;2.03;;;1.00;;
19907;SDS011;10116;53.112;7.356;2024-02-23T13:25:56;0.70;;;0.70;;
19907;SDS011;10116;53.112;7.356;2024-02-23T13:28:22;1.63;;;1.07;;
19907;SDS011;10116;53.112;7.356;2024-02-23T13:30:48;6.73;;;1.30;;
19907;SDS011;10116;53.112;7.356;2024-02-23T13:33:13;1.93;;;1.10;;
19907;SDS011;10116;53.112;7.356;2024-02-23T13:35:41;8.00;;;1.10;;
19907;SDS011;10116;53.112;7.356;2024-02-23T13:38:07;6.30;;;0.83;;
19907;SDS011;10116;53.112;7.356;2024-02-23T13:40:34;3.67;;;1.30;;
19907;SDS011;10116;53.112;7.356;2024-02-23T13:42:59;4.83;;;1.40;;
19907;SDS011;10116;53.112;7.356;2024-02-23T13:45:25;2.50;;;1.20;;
19907;SDS011;10116;53.112;7.356;2024-02-23T13:47:57;1.77;;;1.37;;
19907;SDS011;10116;53.112;7.356;2024-02-23T13:50:27;4.23;;;1.10;;
19907;SDS011;10116;53.112;7.356;2024-02-23T13:52:53;1.43;;;1.03;;
19907;SDS011;10116;53.112;7.356;2024-02-23T13:55:19;3.00;;;1.00;;
19907;SDS011;10116;53.112;7.356;2024-02-23T13:57:45;2.57;;;1.20;;
19907;SDS011;10116;53.112;7.356;2024-02-23T14:00:12;3.17;;;1.10;;
19907;SDS011;10116;53.112;7.356;2024-02-23T14:02:38;1.40;;;1.00;;
19907;SDS011;10116;53.112;7.356;2024-02-23T14:05:07;1.70;;;1.10;;
19907;SDS011;10116;53.112;7.356;2024-02-23T14:07:33;1.30;;;0.80;;
19907;SDS011;10116;53.112;7.356;2024-02-23T14:09:59;2.17;;;0.70;;
19907;SDS011;10116;53.112;7.356;2024-02-23T14:12:25;1.30;;;0.93;;
19907;SDS011;10116;53.112;7.356;2024-02-23T14:14:51;3.00;;;1.10;;
19907;SDS011;10116;53.112;7.356;2024-02-23T14:17:17;1.97;;;1.00;;
19907;SDS011;10116;53.112;7.356;2024-02-23T14:19:42;3.03;;;0.83;;
19907;SDS011;10116;53.112;7.356;2024-02-23T14:22:08;1.73;;;0.93;;
19907;SDS011;10116;53.112;7.356;2024-02-23T14:24:34;8.10;;;0.90;;
19907;SDS011;10116;53.112;7.356;2024-02-23T14:27:00;1.30;;;0.60;;
19907;SDS011;10116;53.112;7.356;2024-02-23T14:29:25;2.30;;;0.90;;
19907;SDS011;10116;53.112;7.356;2024-02-23T14:31:52;1.73;;;0.90;;
19907;SDS011;10116;53.112;7.356;2024-02-23T14:34:17;3.60;;;1.20;;
19907;SDS011;10116;53.112;7.356;2024-02-23T14:36:45;1.53;;;1.00;;
19907;SDS011;10116;53.112;7.356;2024-02-23T14:39:10;1.37;;;1.00;;
19907;SDS011;10116;53.112;7.356;2024-02-23T14:41:38;1.03;;;0.80;;
19907;SDS011;10116;53.112;7.356;2024-02-23T14:44:04;0.90;;;0.90;;
19907;SDS011;10116;53.112;7.356;2024-02-23T14:46:30;2.10;;;1.00;;